Cedar Creek, TX (78612)

2:24 AM CDT on September 21, 2014 (GMT -0500)
BCESD1 - Cedar Creek Station | Change Station
CLOSE
Current Station
Personal Weather Station
Location: Cedar Creek, TX
Elevation: 422 ft
Nearby Weather Stations

Elev 422 ft 30.08 °N, 97.50 °W | Updated 5 minutes ago

Clear
Clear
74.1 °F
Feels Like 72 °F
N
0.0
Wind Variable Wind from East

Today
High -- | Low -- °F
--% Chance of Precip.
Yesterday
High -- | Low -- °F
Precip. -- in
7:17 AM 7:27 PM
Waning Crescent, 8% visible
Pressure 29.96 in
Visibility 9.0 miles
Clouds Clear
Heat Index 72 °F
Dew Point 72 °F
Humidity 94%
Rainfall 0.00 in
Snow Depth Not available.
UV 0 out of 12
Pollen 9.20 out of 12
Ozone Good
PM2.5 Good
Flu Activity Not available.
METAR KAUS 210653Z 00000KT 9SM CLR 23/22 A2999 RMK AO2 SLP144 T02280222

More Conditions Fewer Conditions

Pressure 29.96 in
Visibility 9.0 miles
Clouds Clear
Heat Index 72 °F
Dew Point 72 °F
Humidity 94%
Rainfall 0.00 in
Snow Depth Not available.
UV 0 out of 12
Pollen 9.20 out of 12
Ozone Good
PM2.5 Good
Flu Activity Not available.
METAR KAUS 210653Z 00000KT 9SM CLR 23/22 A2999 RMK AO2 SLP144 T02280222

More Conditions Fewer Conditions

10-Day Weather Forecast

Almanac

Astronomy

Sep. 21, 2014 Rise Set
Actual Time 7:17 AM CDT 7:27 PM CDT
Civil Twilight 6:53 AM CDT 7:51 PM CDT
Nautical Twilight 6:26 AM CDT 8:19 PM CDT
Astronomical Twilight 5:57 AM CDT 8:47 PM CDT
Moon 5:00 AM CDT 5:58 PM CDT
Length of Visible Light 12h 57m
Length of Day
12h 09m
Tomorrow will be 1m 48s shorter.
Waning Crescent, 8% of the Moon is Illuminated
Today
Waning Crescent
Sep 24
New
Oct 1
First Quarter
Oct 8
Full
Oct 15
Last Quarter

Today's Extremes

State Highs State Lows

Community

WunderPhotos

Upload Photos

1,755,101 photos uploaded!

Nearby

Air Quality

  Air Quality AQ Index Pollutant
Yesterday Good
OZONE
Yesterday Good
PM2.5
Current Good
PM2.5
Current Good
OZONE
Sunday Good
OZONE
Sunday Good
PM10
Monday Moderate
OZONE
Monday Good
PM10
Tuesday Moderate
OZONE
Tuesday Good
PM10

Snow Depth

Station Depth Elevation
No new snow has been reported.

Earthquake Activity

City Distance Mag. Time & Date
No recent earthquake activity has been reported nearby.
Minimum magnitude displayed is 2.5.

Coastal Water Temperatures

Place Temperature
No Stations Reporting

Nearby Weather Stations